createdAt,value
2023-04-06T00:00:55.995Z,54.69
2023-04-06T00:03:22.895Z,54.62
2023-04-06T00:05:49.818Z,54.69
2023-04-06T00:08:16.775Z,54.55
2023-04-06T00:10:43.648Z,54.81
2023-04-06T00:13:10.950Z,54.90
2023-04-06T00:15:37.777Z,55.27
2023-04-06T00:18:04.828Z,55.22
2023-04-06T00:20:31.797Z,55.45
2023-04-06T00:22:58.720Z,55.66
2023-04-06T00:25:25.575Z,55.43
2023-04-06T00:27:52.520Z,54.96
2023-04-06T00:30:19.673Z,55.00
2023-04-06T00:32:46.541Z,55.03
2023-04-06T00:35:13.442Z,55.11
2023-04-06T00:37:40.381Z,54.98
2023-04-06T00:40:08.228Z,54.80
2023-04-06T00:42:35.303Z,54.78
2023-04-06T00:45:03.114Z,55.17
2023-04-06T00:47:30.035Z,55.33
2023-04-06T00:49:57.576Z,55.68
2023-04-06T00:52:24.448Z,55.79
2023-04-06T00:54:51.881Z,55.77
2023-04-06T00:57:19.610Z,55.71
2023-04-06T00:59:46.927Z,56.35
2023-04-06T01:02:13.954Z,56.54
2023-04-06T01:04:41.341Z,56.60
2023-04-06T01:07:08.204Z,56.98
2023-04-06T01:09:35.094Z,56.89
2023-04-06T01:12:02.067Z,56.75
2023-04-06T01:14:29.171Z,56.73
2023-04-06T01:16:59.421Z,57.15
2023-04-06T01:19:26.493Z,57.18
2023-04-06T01:21:54.291Z,57.03
2023-04-06T01:24:21.812Z,57.16
2023-04-06T01:26:49.204Z,57.06
2023-04-06T01:29:16.208Z,56.93
2023-04-06T01:31:43.104Z,56.93
2023-04-06T01:34:09.973Z,56.83
2023-04-06T01:36:36.784Z,57.01
2023-04-06T01:39:03.759Z,57.24
2023-04-06T01:41:30.687Z,57.05
2023-04-06T01:43:57.666Z,57.32
2023-04-06T01:46:24.534Z,57.38
2023-04-06T01:48:51.799Z,57.43
2023-04-06T01:51:18.635Z,57.33
2023-04-06T01:53:45.580Z,57.13
2023-04-06T01:56:12.481Z,57.41
2023-04-06T01:58:39.320Z,57.54
2023-04-06T02:01:06.286Z,57.42
2023-04-06T02:03:33.119Z,57.30
2023-04-06T02:06:00.010Z,57.50
2023-04-06T02:08:26.852Z,57.64
2023-04-06T02:10:53.885Z,57.56
2023-04-06T02:13:20.798Z,57.71
2023-04-06T02:15:47.649Z,58.17
2023-04-06T02:18:14.503Z,58.13
2023-04-06T02:20:41.548Z,58.26
2023-04-06T02:23:08.342Z,58.20
2023-04-06T02:25:35.802Z,58.41
2023-04-06T02:28:02.822Z,58.55
2023-04-06T02:30:30.318Z,58.48
2023-04-06T02:32:57.158Z,58.63
2023-04-06T02:35:26.032Z,58.54
2023-04-06T02:37:52.859Z,58.74
2023-04-06T02:40:19.685Z,58.95
2023-04-06T02:42:46.613Z,58.83
2023-04-06T02:45:13.446Z,59.03
2023-04-06T02:47:40.307Z,59.02
2023-04-06T02:50:07.474Z,59.06
2023-04-06T02:52:34.393Z,58.96
2023-04-06T02:55:01.289Z,59.15
2023-04-06T02:57:28.085Z,59.22
2023-04-06T02:59:54.924Z,58.96
2023-04-06T03:02:21.817Z,58.95
2023-04-06T03:04:48.708Z,58.82
2023-04-06T03:07:15.532Z,59.08
2023-04-06T03:09:43.265Z,59.06
2023-04-06T03:12:10.489Z,58.95
2023-04-06T03:14:37.371Z,59.01
2023-04-06T03:17:04.168Z,59.15
2023-04-06T03:19:31.000Z,59.36
2023-04-06T03:21:57.886Z,59.30
2023-04-06T03:24:24.772Z,59.29
2023-04-06T03:26:51.552Z,59.30
2023-04-06T03:29:18.421Z,59.28
2023-04-06T03:31:45.386Z,59.11
2023-04-06T03:34:12.254Z,59.44
2023-04-06T03:36:39.214Z,59.62
2023-04-06T03:39:06.724Z,59.59
2023-04-06T03:41:33.798Z,59.51
2023-04-06T03:44:00.683Z,59.53
2023-04-06T03:46:27.770Z,59.77
2023-04-06T03:48:54.695Z,59.58
2023-04-06T03:51:21.761Z,59.62
2023-04-06T03:53:48.671Z,59.57
2023-04-06T03:56:15.643Z,59.70
2023-04-06T03:58:42.523Z,59.60
2023-04-06T04:01:09.331Z,59.56
2023-04-06T04:03:36.357Z,59.52
2023-04-06T04:06:03.411Z,59.72
2023-04-06T04:08:30.257Z,59.75
2023-04-06T04:10:57.033Z,59.64
2023-04-06T04:13:23.881Z,59.53
2023-04-06T04:15:50.853Z,59.60
2023-04-06T04:18:17.734Z,59.50
2023-04-06T04:20:44.536Z,59.62
2023-04-06T04:23:11.572Z,59.42
2023-04-06T04:25:38.379Z,59.72
2023-04-06T04:28:05.558Z,59.80
2023-04-06T04:30:32.515Z,59.87
2023-04-06T04:32:59.436Z,59.94
2023-04-06T04:35:26.336Z,60.36
2023-04-06T04:37:53.217Z,60.13
2023-04-06T04:40:20.162Z,60.48
2023-04-06T04:42:47.411Z,60.31
2023-04-06T04:45:14.499Z,60.33
2023-04-06T04:47:41.487Z,60.05
2023-04-06T04:50:08.822Z,60.02
2023-04-06T04:52:35.883Z,60.11
2023-04-06T04:55:02.935Z,60.26
2023-04-06T04:57:29.845Z,60.43
2023-04-06T04:59:58.070Z,60.45
2023-04-06T05:02:25.205Z,60.08
2023-04-06T05:04:52.153Z,60.14
2023-04-06T05:07:19.745Z,59.63
2023-04-06T05:09:46.621Z,59.69
2023-04-06T05:12:13.625Z,59.19
2023-04-06T05:14:40.754Z,60.09
2023-04-06T05:17:07.616Z,60.18
2023-04-06T05:19:34.518Z,60.30
2023-04-06T05:22:01.352Z,59.34
2023-04-06T05:24:28.206Z,59.22
2023-04-06T05:26:55.478Z,59.10
2023-04-06T05:29:22.576Z,58.56
2023-04-06T05:31:49.610Z,59.39
2023-04-06T05:34:16.797Z,59.66
2023-04-06T05:36:43.576Z,60.21
2023-04-06T05:39:10.705Z,60.10
2023-04-06T05:41:37.851Z,59.62
2023-04-06T05:44:04.719Z,60.11
2023-04-06T05:46:32.653Z,59.35
2023-04-06T05:48:59.500Z,57.81
2023-04-06T05:51:27.779Z,57.72
2023-04-06T05:53:54.675Z,58.26
2023-04-06T05:56:21.544Z,57.23
2023-04-06T05:58:48.410Z,57.20
2023-04-06T06:01:16.686Z,56.52
2023-04-06T06:03:43.506Z,56.24
2023-04-06T06:06:10.383Z,54.76
2023-04-06T06:08:37.185Z,54.12
2023-04-06T06:11:04.328Z,53.61
2023-04-06T06:13:31.139Z,52.59
2023-04-06T06:15:58.314Z,52.88
2023-04-06T06:18:25.276Z,51.61
2023-04-06T06:20:52.164Z,50.50
2023-04-06T06:23:18.971Z,50.03
2023-04-06T06:25:45.965Z,49.82
2023-04-06T06:28:12.900Z,49.01
2023-04-06T06:30:39.717Z,47.65
2023-04-06T06:33:06.990Z,47.22
2023-04-06T06:35:33.857Z,47.10
2023-04-06T06:38:00.902Z,47.56
2023-04-06T06:40:27.967Z,46.95
2023-04-06T06:42:54.951Z,47.03
2023-04-06T06:45:22.121Z,47.24
2023-04-06T06:47:49.355Z,46.56
2023-04-06T06:50:16.348Z,46.36
2023-04-06T06:52:43.641Z,45.81
2023-04-06T06:55:11.923Z,45.45
2023-04-06T06:57:39.353Z,45.34
2023-04-06T07:00:08.404Z,45.64
2023-04-06T07:02:36.808Z,45.21
2023-04-06T07:05:10.165Z,45.16
2023-04-06T07:07:43.432Z,44.13
2023-04-06T07:10:11.665Z,44.10
2023-04-06T07:12:38.570Z,43.99
2023-04-06T07:15:06.382Z,43.50
2023-04-06T07:17:33.597Z,42.82
2023-04-06T07:20:00.481Z,43.45
2023-04-06T07:22:27.361Z,43.22
2023-04-06T07:24:54.266Z,42.96
2023-04-06T07:27:21.204Z,42.64
2023-04-06T07:29:48.345Z,42.20
2023-04-06T07:32:15.703Z,41.96
2023-04-06T07:34:42.726Z,41.39
2023-04-06T07:37:09.561Z,41.70
2023-04-06T07:39:36.392Z,41.59
2023-04-06T07:42:03.199Z,41.48
2023-04-06T07:44:30.121Z,41.42
2023-04-06T07:46:57.259Z,41.67
2023-04-06T07:49:24.180Z,40.97
2023-04-06T07:51:51.040Z,41.26
2023-04-06T07:54:17.901Z,40.59
2023-04-06T07:56:44.717Z,40.01
2023-04-06T07:59:12.434Z,40.74
2023-04-06T08:01:39.381Z,40.06
2023-04-06T08:04:06.671Z,38.96
2023-04-06T08:06:33.800Z,38.24
2023-04-06T08:09:00.568Z,39.01
2023-04-06T08:11:27.795Z,38.46
2023-04-06T08:13:57.666Z,38.50
2023-04-06T08:16:25.540Z,37.26
2023-04-06T08:18:52.355Z,35.67
2023-04-06T08:21:19.825Z,35.97
2023-04-06T08:23:47.199Z,35.92
2023-04-06T08:26:14.067Z,35.13
2023-04-06T08:28:40.903Z,34.41
2023-04-06T08:31:07.944Z,35.19
2023-04-06T08:33:39.985Z,34.47
2023-04-06T08:36:14.942Z,34.07
2023-04-06T08:38:43.766Z,35.13
2023-04-06T08:41:14.908Z,34.93
2023-04-06T08:43:49.717Z,32.77
2023-04-06T08:46:17.010Z,32.76
2023-04-06T08:48:44.647Z,31.46
2023-04-06T08:51:11.923Z,30.63
2023-04-06T08:53:39.509Z,31.21
2023-04-06T08:56:07.039Z,30.84
2023-04-06T08:58:39.075Z,30.84
2023-04-06T09:01:15.007Z,30.25
2023-04-06T09:03:42.566Z,30.21
2023-04-06T09:06:10.507Z,30.08
2023-04-06T09:08:41.042Z,30.73
2023-04-06T09:11:08.954Z,30.36
2023-04-06T09:13:53.762Z,29.71
2023-04-06T09:16:21.942Z,29.76
2023-04-06T09:18:49.940Z,29.43
2023-04-06T09:21:23.562Z,28.64
2023-04-06T09:24:02.873Z,28.66
2023-04-06T09:26:30.115Z,30.61
2023-04-06T09:29:02.127Z,29.49
2023-04-06T09:31:33.758Z,28.73
2023-04-06T09:34:01.569Z,29.12
2023-04-06T09:36:36.853Z,29.97
2023-04-06T09:39:05.714Z,27.83
2023-04-06T09:41:35.005Z,29.95
2023-04-06T09:44:09.543Z,29.27
2023-04-06T09:46:57.724Z,30.10
2023-04-06T09:49:29.294Z,29.18
2023-04-06T09:52:03.783Z,28.19
2023-04-06T09:54:32.535Z,27.46
2023-04-06T09:57:11.298Z,27.01
2023-04-06T10:00:08.925Z,28.28
2023-04-06T10:03:12.614Z,28.58
2023-04-06T10:05:48.066Z,30.89
2023-04-06T10:08:16.355Z,30.38
2023-04-06T10:10:43.617Z,29.89
2023-04-06T10:13:12.357Z,30.74
2023-04-06T10:15:43.560Z,28.54
2023-04-06T10:18:10.570Z,27.89
2023-04-06T10:21:03.081Z,27.99
2023-04-06T10:23:52.134Z,29.57
2023-04-06T10:26:22.358Z,28.90
2023-04-06T10:28:50.932Z,27.63
2023-04-06T10:31:28.441Z,28.63
2023-04-06T10:34:01.545Z,27.89
2023-04-06T10:36:33.273Z,26.70
2023-04-06T10:39:03.661Z,26.64
2023-04-06T10:41:48.777Z,26.34
2023-04-06T10:44:22.719Z,26.70
2023-04-06T10:47:03.907Z,27.37
2023-04-06T10:49:31.001Z,26.42
2023-04-06T10:51:58.410Z,25.99
2023-04-06T10:54:27.310Z,26.16
2023-04-06T10:56:54.257Z,25.76
2023-04-06T10:59:23.109Z,24.66
2023-04-06T11:01:50.587Z,25.66
2023-04-06T11:04:19.317Z,26.63
2023-04-06T11:06:51.172Z,25.45
2023-04-06T11:09:29.124Z,25.68
2023-04-06T11:11:56.968Z,25.62
2023-04-06T11:14:24.014Z,27.83
2023-04-06T11:16:51.297Z,26.40
2023-04-06T11:19:18.822Z,26.68
2023-04-06T11:21:49.191Z,25.79
2023-04-06T11:24:23.476Z,25.66
2023-04-06T11:26:58.597Z,26.16
2023-04-06T11:29:32.473Z,25.97
2023-04-06T11:32:04.966Z,25.83
2023-04-06T11:34:38.177Z,26.56
2023-04-06T11:37:10.880Z,24.85
2023-04-06T11:39:47.889Z,25.25
2023-04-06T11:42:22.352Z,26.30
2023-04-06T11:44:54.276Z,26.18
2023-04-06T11:47:28.548Z,24.99
2023-04-06T11:49:55.632Z,25.77
2023-04-06T11:52:26.994Z,26.50
2023-04-06T11:54:55.269Z,26.35
2023-04-06T11:57:26.615Z,24.99
2023-04-06T11:59:53.696Z,26.60
2023-04-06T12:02:20.839Z,25.81
2023-04-06T12:04:47.805Z,26.61
2023-04-06T12:07:14.820Z,27.79
2023-04-06T12:09:42.395Z,26.35
2023-04-06T12:12:09.261Z,24.75
2023-04-06T12:14:36.120Z,24.62
2023-04-06T12:17:03.039Z,24.56
2023-04-06T12:19:31.001Z,24.87
2023-04-06T12:21:58.578Z,25.31
2023-04-06T12:24:25.905Z,26.22
2023-04-06T12:26:59.576Z,26.64
2023-04-06T12:29:30.248Z,26.29
2023-04-06T12:31:57.265Z,25.47
2023-04-06T12:34:24.248Z,24.42
2023-04-06T12:36:51.209Z,23.48
2023-04-06T12:39:21.639Z,23.55
2023-04-06T12:41:48.705Z,23.10
2023-04-06T12:44:15.644Z,22.91
2023-04-06T12:46:44.222Z,22.18
2023-04-06T12:49:11.223Z,22.25
2023-04-06T12:51:38.093Z,20.50
2023-04-06T12:54:05.001Z,20.98
2023-04-06T12:56:32.080Z,21.82
2023-04-06T12:58:59.041Z,20.89
2023-04-06T13:01:27.622Z,20.60
2023-04-06T13:03:54.555Z,20.67
2023-04-06T13:06:21.458Z,20.12
2023-04-06T13:08:50.899Z,19.84
2023-04-06T13:11:18.204Z,18.74
2023-04-06T13:13:45.249Z,18.72
2023-04-06T13:16:12.146Z,17.76
2023-04-06T13:18:39.870Z,16.83
2023-04-06T13:21:08.526Z,16.41
2023-04-06T13:23:36.352Z,16.71
2023-04-06T13:26:06.320Z,15.65
2023-04-06T13:28:34.901Z,17.07
2023-04-06T13:31:03.306Z,15.29
2023-04-06T13:33:31.007Z,16.80
2023-04-06T13:35:59.749Z,16.07
2023-04-06T13:38:26.865Z,17.13
2023-04-06T13:40:53.908Z,16.85
2023-04-06T13:43:21.327Z,18.14
2023-04-06T13:45:57.072Z,18.10
2023-04-06T13:48:24.061Z,18.47
2023-04-06T13:50:51.358Z,19.65
2023-04-06T13:53:18.753Z,18.50
2023-04-06T13:55:54.779Z,17.10
2023-04-06T13:58:21.774Z,17.39
2023-04-06T14:00:48.809Z,20.09
2023-04-06T14:03:15.914Z,22.77
2023-04-06T14:05:42.833Z,23.65
2023-04-06T14:08:09.613Z,23.14
2023-04-06T14:10:41.367Z,20.74
2023-04-06T14:13:08.530Z,17.61
2023-04-06T14:15:36.281Z,16.70
2023-04-06T14:18:03.504Z,16.43
2023-04-06T14:20:33.569Z,15.08
2023-04-06T14:23:04.367Z,14.86
2023-04-06T14:25:32.843Z,14.14
2023-04-06T14:27:59.790Z,15.31
2023-04-06T14:30:26.676Z,15.12
2023-04-06T14:32:53.921Z,14.74
2023-04-06T14:35:20.749Z,15.70
2023-04-06T14:37:48.097Z,15.84
2023-04-06T14:40:15.034Z,17.02
2023-04-06T14:42:42.162Z,17.52
2023-04-06T14:45:09.337Z,17.45
2023-04-06T14:47:36.363Z,17.17
2023-04-06T14:50:03.375Z,16.17
2023-04-06T14:52:32.580Z,16.34
2023-04-06T14:54:59.823Z,15.03
2023-04-06T14:57:26.648Z,17.02
2023-04-06T14:59:55.317Z,16.71
2023-04-06T15:02:22.318Z,16.33
2023-04-06T15:04:49.247Z,15.20
2023-04-06T15:07:16.096Z,15.86
2023-04-06T15:09:42.968Z,16.74
2023-04-06T15:12:09.810Z,17.39
2023-04-06T15:14:36.620Z,17.22
2023-04-06T15:17:03.447Z,17.42
2023-04-06T15:19:30.249Z,18.28
2023-04-06T15:21:58.148Z,18.57
2023-04-06T15:24:26.404Z,18.19
2023-04-06T15:26:53.238Z,16.83
2023-04-06T15:29:20.082Z,16.98
2023-04-06T15:31:46.989Z,17.52
2023-04-06T15:34:13.787Z,17.57
2023-04-06T15:36:40.725Z,17.46
2023-04-06T15:39:09.789Z,18.77
2023-04-06T15:41:37.139Z,20.03
2023-04-06T15:44:04.702Z,20.84
2023-04-06T15:46:31.585Z,22.30
2023-04-06T15:48:58.486Z,22.05
2023-04-06T15:51:26.222Z,21.97
2023-04-06T15:53:53.100Z,22.50
2023-04-06T15:56:19.999Z,23.79
2023-04-06T15:58:47.524Z,23.33
2023-04-06T16:01:17.538Z,23.74
2023-04-06T16:03:45.291Z,23.89
2023-04-06T16:06:13.120Z,24.26
2023-04-06T16:08:41.107Z,23.46
2023-04-06T16:11:08.789Z,23.59
2023-04-06T16:13:36.725Z,24.00
2023-04-06T16:16:04.711Z,23.20
2023-04-06T16:18:33.085Z,22.96
2023-04-06T16:21:01.086Z,22.59
2023-04-06T16:23:28.206Z,22.65
2023-04-06T16:25:57.611Z,23.56
2023-04-06T16:28:25.492Z,24.70
2023-04-06T16:30:52.926Z,25.62
2023-04-06T16:33:19.930Z,25.16
2023-04-06T16:35:47.587Z,25.43
2023-04-06T16:38:15.350Z,25.20
2023-04-06T16:40:42.384Z,25.89
2023-04-06T16:43:10.002Z,26.63
2023-04-06T16:45:38.324Z,26.65
2023-04-06T16:48:06.102Z,26.55
2023-04-06T16:50:33.098Z,25.29
2023-04-06T16:53:00.185Z,25.66
2023-04-06T16:55:26.999Z,27.41
2023-04-06T16:57:56.884Z,28.30
2023-04-06T17:00:24.046Z,28.39
2023-04-06T17:02:51.127Z,28.70
2023-04-06T17:05:24.407Z,29.14
2023-04-06T17:07:51.280Z,29.80
2023-04-06T17:10:21.440Z,30.41
2023-04-06T17:12:55.686Z,30.85
2023-04-06T17:15:24.820Z,31.34
2023-04-06T17:17:52.141Z,32.17
2023-04-06T17:20:19.787Z,32.15
2023-04-06T17:22:47.291Z,32.84
2023-04-06T17:25:14.900Z,33.03
2023-04-06T17:27:41.780Z,33.25
2023-04-06T17:30:13.214Z,34.03
2023-04-06T17:32:41.475Z,34.08
2023-04-06T17:35:11.098Z,34.64
2023-04-06T17:37:38.952Z,34.43
2023-04-06T17:40:07.432Z,35.18
2023-04-06T17:42:34.270Z,35.36
2023-04-06T17:45:01.086Z,35.59
2023-04-06T17:47:32.090Z,35.77
2023-04-06T17:49:59.932Z,36.24
2023-04-06T17:52:28.095Z,36.78
2023-04-06T17:54:56.286Z,37.30
2023-04-06T17:57:23.386Z,37.43
2023-04-06T17:59:50.347Z,37.27
2023-04-06T18:02:17.303Z,37.38
2023-04-06T18:04:44.518Z,37.67
2023-04-06T18:07:11.582Z,37.97
2023-04-06T18:09:39.844Z,38.38
2023-04-06T18:12:06.918Z,38.71
2023-04-06T18:14:33.720Z,38.42
2023-04-06T18:17:00.503Z,38.21
2023-04-06T18:19:28.805Z,38.07
2023-04-06T18:21:55.933Z,38.08
2023-04-06T18:24:32.120Z,38.52
2023-04-06T18:27:05.139Z,38.67
2023-04-06T18:29:32.040Z,38.71
2023-04-06T18:31:58.885Z,38.76
2023-04-06T18:34:25.701Z,38.73
2023-04-06T18:36:52.681Z,38.79
2023-04-06T18:39:19.576Z,39.13
2023-04-06T18:41:46.376Z,39.40
2023-04-06T18:44:13.243Z,39.79
2023-04-06T18:46:40.416Z,39.97
2023-04-06T18:49:07.279Z,40.19
2023-04-06T18:51:34.380Z,40.51
2023-04-06T18:54:02.353Z,40.73
2023-04-06T18:56:29.340Z,41.41
2023-04-06T18:58:56.498Z,41.75
2023-04-06T19:01:27.569Z,41.98
2023-04-06T19:03:56.031Z,41.92
2023-04-06T19:06:24.181Z,42.98
2023-04-06T19:08:51.224Z,42.82
2023-04-06T19:11:18.625Z,43.30
2023-04-06T19:13:49.856Z,43.34
2023-04-06T19:16:18.163Z,44.00
2023-04-06T19:18:45.608Z,44.73
2023-04-06T19:21:21.050Z,44.93
2023-04-06T19:23:51.181Z,44.83
2023-04-06T19:26:19.413Z,45.04
2023-04-06T19:28:47.037Z,44.65
2023-04-06T19:31:16.589Z,44.46
2023-04-06T19:33:44.622Z,46.11
2023-04-06T19:36:11.739Z,45.94
2023-04-06T19:38:39.702Z,45.66
2023-04-06T19:41:06.508Z,45.56
2023-04-06T19:43:33.453Z,45.60
2023-04-06T19:46:00.510Z,46.04
2023-04-06T19:48:27.353Z,46.59
2023-04-06T19:50:55.004Z,46.71
2023-04-06T19:53:22.867Z,46.57
2023-04-06T19:55:50.352Z,46.77
2023-04-06T19:58:18.277Z,46.49
2023-04-06T20:00:45.226Z,46.92
2023-04-06T20:03:12.343Z,47.35
2023-04-06T20:05:39.908Z,46.77
2023-04-06T20:08:06.873Z,46.79
2023-04-06T20:10:33.733Z,46.67
2023-04-06T20:13:01.472Z,47.27
2023-04-06T20:15:29.586Z,48.18
2023-04-06T20:17:56.814Z,47.93
2023-04-06T20:20:23.717Z,46.69
2023-04-06T20:22:50.599Z,46.79
2023-04-06T20:25:18.497Z,46.86
2023-04-06T20:27:45.753Z,47.04
2023-04-06T20:30:16.687Z,47.13
2023-04-06T20:32:43.908Z,47.89
2023-04-06T20:35:11.055Z,48.67
2023-04-06T20:37:38.648Z,48.57
2023-04-06T20:40:06.588Z,48.65
2023-04-06T20:42:34.253Z,48.68
2023-04-06T20:45:02.647Z,48.78
2023-04-06T20:47:29.733Z,48.59
2023-04-06T20:49:56.617Z,48.51
2023-04-06T20:52:23.697Z,48.16
2023-04-06T20:54:51.006Z,49.09
2023-04-06T20:57:18.147Z,49.19
2023-04-06T20:59:47.595Z,49.19
2023-04-06T21:02:14.518Z,47.29
2023-04-06T21:04:44.315Z,47.22
2023-04-06T21:07:11.564Z,47.41
2023-04-06T21:09:40.864Z,48.59
2023-04-06T21:12:08.332Z,48.30
2023-04-06T21:14:35.359Z,48.06
2023-04-06T21:17:02.414Z,48.77
2023-04-06T21:19:29.317Z,49.14
2023-04-06T21:21:56.390Z,49.14
2023-04-06T21:24:23.369Z,49.44
2023-04-06T21:26:50.379Z,49.57
2023-04-06T21:29:17.362Z,49.71
2023-04-06T21:31:44.302Z,49.91
2023-04-06T21:34:14.763Z,49.97
2023-04-06T21:36:42.411Z,50.42
2023-04-06T21:39:10.332Z,50.66
2023-04-06T21:41:37.387Z,49.88
2023-04-06T21:44:04.348Z,49.18
2023-04-06T21:46:31.309Z,49.81
2023-04-06T21:48:58.406Z,49.67
2023-04-06T21:51:25.394Z,50.17
2023-04-06T21:53:53.763Z,49.32
2023-04-06T21:56:22.883Z,49.68
2023-04-06T21:58:50.884Z,50.12
2023-04-06T22:01:18.462Z,50.36
2023-04-06T22:03:46.511Z,50.83
2023-04-06T22:06:13.809Z,51.23
2023-04-06T22:08:40.921Z,50.87
2023-04-06T22:11:11.689Z,51.46
2023-04-06T22:13:39.203Z,51.33
2023-04-06T22:16:07.457Z,51.07
2023-04-06T22:18:37.285Z,51.28
2023-04-06T22:21:05.829Z,51.47
2023-04-06T22:23:33.100Z,51.79
2023-04-06T22:26:00.108Z,51.61
2023-04-06T22:28:27.275Z,51.03
2023-04-06T22:30:54.163Z,51.26
2023-04-06T22:33:21.563Z,51.61
2023-04-06T22:35:48.462Z,51.28
2023-04-06T22:38:15.353Z,51.10
2023-04-06T22:40:42.276Z,50.56
2023-04-06T22:43:09.733Z,50.08
2023-04-06T22:45:36.548Z,50.63
2023-04-06T22:48:03.614Z,50.51
2023-04-06T22:50:30.516Z,50.77
2023-04-06T22:52:57.421Z,50.68
2023-04-06T22:55:24.431Z,51.17
2023-04-06T22:57:51.567Z,51.75
2023-04-06T23:00:18.682Z,52.34
2023-04-06T23:02:45.984Z,52.13
2023-04-06T23:05:12.972Z,52.24
2023-04-06T23:07:39.837Z,52.09
2023-04-06T23:10:07.760Z,51.71
2023-04-06T23:13:13.273Z,51.76
2023-04-06T23:15:40.149Z,51.69
2023-04-06T23:18:07.341Z,51.51
2023-04-06T23:20:34.547Z,51.66
2023-04-06T23:23:01.433Z,51.94
2023-04-06T23:25:28.231Z,51.79
2023-04-06T23:27:55.236Z,52.37
2023-04-06T23:30:22.102Z,51.98
2023-04-06T23:32:48.993Z,51.73
2023-04-06T23:35:15.821Z,51.36
2023-04-06T23:37:42.671Z,51.39
2023-04-06T23:40:09.864Z,51.97
2023-04-06T23:42:36.758Z,52.23
2023-04-06T23:45:07.329Z,51.58
2023-04-06T23:47:34.225Z,52.19
2023-04-06T23:50:01.150Z,51.78
2023-04-06T23:52:29.677Z,52.37
2023-04-06T23:54:56.449Z,51.82
2023-04-06T23:57:23.256Z,51.99
2023-04-06T23:59:50.295Z,52.17
